Brazoria County Airport Angleton, Lake Jackson US
ICAO: KLBX
IATA: LBX
Category: Medium
Scheduled Services: No

Elevation: 25 ft
TransAlt. 18000 ft.

Airport Communications:
HOUSTON APP/DEP:134.45
ASOS:119.925
CLNC DEL:125.2
CTAF/UNICOM:123

KLBX Zoom In..

Runways:

(A) RW 17 length 7000 ft width 100 ft
ILS 109.10 / hdg 175

(B) RW 35 length 7000 ft width 100 ft
---- / hdg 355

Location; KLBX
Day. 23 / Time. 09.53 Zulu
* Altimeter: 29.87
* Temperature: 26° c. 78.8°f.
* Wind from: 230° Speed 05 kn.
Dewpoint: 26° c.
Visibility: 7 Statute Miles.
Clouds: Clear (automated report).

KLBX 230953Z AUTO 23005KT 7SM CLR 26/26 A2987 RMK AO2 SLP113 T02610256 $


Wind From 230°
Speed 05 kn.

 
 
jpsmedia.com for Web Design worldairports.se 2018   terms of use